sensor_id;sensor_type;location;lat;lon;timestamp;pressure;altitude;pressure_sealevel;temperature;humidity
71795;BME280;59641;45.188;5.712;2023-03-23T00:01:20;99056.25;;;17.51;46.41
71795;BME280;59641;45.188;5.712;2023-03-23T00:03:49;99048.13;;;17.51;46.41
71795;BME280;59641;45.188;5.712;2023-03-23T00:06:16;99049.75;;;17.46;46.59
71795;BME280;59641;45.188;5.712;2023-03-23T00:08:44;99050.56;;;17.47;46.76
71795;BME280;59641;45.188;5.712;2023-03-23T00:11:11;99051.63;;;17.46;46.64
71795;BME280;59641;45.188;5.712;2023-03-23T00:13:40;99056.25;;;17.45;46.49
71795;BME280;59641;45.188;5.712;2023-03-23T00:16:06;99056.56;;;17.44;46.69
71795;BME280;59641;45.188;5.712;2023-03-23T00:18:43;99064.69;;;17.44;46.37
71795;BME280;59641;45.188;5.712;2023-03-23T00:21:09;99064.94;;;17.42;46.92
71795;BME280;59641;45.188;5.712;2023-03-23T00:23:34;99061.44;;;17.42;46.94
71795;BME280;59641;45.188;5.712;2023-03-23T00:26:00;99059.78;;;17.41;46.99
71795;BME280;59641;45.188;5.712;2023-03-23T00:28:26;99067.66;;;17.42;46.68
71795;BME280;59641;45.188;5.712;2023-03-23T00:31:04;99073.09;;;17.42;47.15
71795;BME280;59641;45.188;5.712;2023-03-23T00:33:33;99069.81;;;17.40;46.76
71795;BME280;59641;45.188;5.712;2023-03-23T00:36:12;99072.00;;;17.38;47.05
71795;BME280;59641;45.188;5.712;2023-03-23T00:38:39;99076.59;;;17.38;47.09
71795;BME280;59641;45.188;5.712;2023-03-23T00:41:05;99078.78;;;17.36;47.17
71795;BME280;59641;45.188;5.712;2023-03-23T00:43:32;99088.81;;;17.35;47.16
71795;BME280;59641;45.188;5.712;2023-03-23T00:46:01;99083.38;;;17.35;47.04
71795;BME280;59641;45.188;5.712;2023-03-23T00:48:28;99086.91;;;17.36;47.26
71795;BME280;59641;45.188;5.712;2023-03-23T00:50:54;99090.16;;;17.38;47.30
71795;BME280;59641;45.188;5.712;2023-03-23T00:53:21;99083.94;;;17.37;47.45
71795;BME280;59641;45.188;5.712;2023-03-23T00:55:48;99083.13;;;17.37;47.60
71795;BME280;59641;45.188;5.712;2023-03-23T00:58:15;99083.13;;;17.37;47.47
71795;BME280;59641;45.188;5.712;2023-03-23T01:00:41;99082.03;;;17.38;47.72
71795;BME280;59641;45.188;5.712;2023-03-23T01:03:08;99078.50;;;17.37;47.67
71795;BME280;59641;45.188;5.712;2023-03-23T01:05:38;99064.94;;;17.37;47.45
71795;BME280;59641;45.188;5.712;2023-03-23T01:08:05;99066.84;;;17.37;47.94
71795;BME280;59641;45.188;5.712;2023-03-23T01:10:31;99071.19;;;17.38;47.80
71795;BME280;59641;45.188;5.712;2023-03-23T01:13:04;99057.06;;;17.36;47.69
71795;BME280;59641;45.188;5.712;2023-03-23T01:15:29;99066.31;;;17.35;47.67
71795;BME280;59641;45.188;5.712;2023-03-23T01:17:55;99069.03;;;17.35;47.84
71795;BME280;59641;45.188;5.712;2023-03-23T01:20:21;99085.28;;;17.35;47.56
71795;BME280;59641;45.188;5.712;2023-03-23T01:22:46;99087.47;;;17.33;47.39
71795;BME280;59641;45.188;5.712;2023-03-23T01:25:13;99076.06;;;17.31;47.47
71795;BME280;59641;45.188;5.712;2023-03-23T01:27:39;99066.03;;;17.26;47.67
71795;BME280;59641;45.188;5.712;2023-03-23T01:30:07;99072.81;;;17.23;47.59
71795;BME280;59641;45.188;5.712;2023-03-23T01:32:34;99065.22;;;17.20;47.85
71795;BME280;59641;45.188;5.712;2023-03-23T01:35:00;99060.06;;;17.19;47.66
71795;BME280;59641;45.188;5.712;2023-03-23T01:37:25;99059.25;;;17.18;47.86
71795;BME280;59641;45.188;5.712;2023-03-23T01:39:57;99057.63;;;17.17;48.13
71795;BME280;59641;45.188;5.712;2023-03-23T01:42:24;99053.53;;;17.15;47.68
71795;BME280;59641;45.188;5.712;2023-03-23T01:47:20;99048.66;;;17.12;47.71
71795;BME280;59641;45.188;5.712;2023-03-23T01:49:49;99050.56;;;17.11;48.05
71795;BME280;59641;45.188;5.712;2023-03-23T01:52:19;99035.13;;;17.12;48.03
71795;BME280;59641;45.188;5.712;2023-03-23T01:54:49;99043.25;;;17.12;48.07
71795;BME280;59641;45.188;5.712;2023-03-23T01:57:17;99038.13;;;17.10;47.78
71795;BME280;59641;45.188;5.712;2023-03-23T01:59:47;99034.03;;;17.08;48.00
71795;BME280;59641;45.188;5.712;2023-03-23T02:02:14;99041.91;;;17.09;47.90
71795;BME280;59641;45.188;5.712;2023-03-23T02:04:41;99031.31;;;17.08;47.82
71795;BME280;59641;45.188;5.712;2023-03-23T02:07:07;99011.53;;;17.07;48.25
71795;BME280;59641;45.188;5.712;2023-03-23T02:09:34;99004.50;;;17.06;47.90
71795;BME280;59641;45.188;5.712;2023-03-23T02:11:59;99010.97;;;17.05;48.17
71795;BME280;59641;45.188;5.712;2023-03-23T02:14:26;99005.56;;;17.05;47.91
71795;BME280;59641;45.188;5.712;2023-03-23T02:17:05;99008.00;;;17.07;47.99
71795;BME280;59641;45.188;5.712;2023-03-23T02:28:09;98998.53;;;17.04;47.90
71795;BME280;59641;45.188;5.712;2023-03-23T02:30:56;98997.72;;;17.03;47.76
71795;BME280;59641;45.188;5.712;2023-03-23T02:33:29;98992.56;;;17.02;48.01
71795;BME280;59641;45.188;5.712;2023-03-23T02:36:01;98992.31;;;16.98;48.12
71795;BME280;59641;45.188;5.712;2023-03-23T02:38:33;98985.78;;;16.99;47.95
71795;BME280;59641;45.188;5.712;2023-03-23T02:41:02;98987.69;;;16.99;48.13
71795;BME280;59641;45.188;5.712;2023-03-23T02:43:33;98983.06;;;16.99;48.34
71795;BME280;59641;45.188;5.712;2023-03-23T02:46:03;98976.84;;;16.99;48.23
71795;BME280;59641;45.188;5.712;2023-03-23T02:48:33;98972.50;;;16.98;48.41
71795;BME280;59641;45.188;5.712;2023-03-23T02:51:00;98986.03;;;16.98;48.20
71795;BME280;59641;45.188;5.712;2023-03-23T02:53:28;98984.44;;;16.97;48.00
71795;BME280;59641;45.188;5.712;2023-03-23T02:55:55;98985.25;;;16.97;48.15
71795;BME280;59641;45.188;5.712;2023-03-23T02:58:22;98989.59;;;16.98;48.03
71795;BME280;59641;45.188;5.712;2023-03-23T03:00:51;98988.50;;;16.99;48.18
71795;BME280;59641;45.188;5.712;2023-03-23T03:03:20;98999.06;;;17.01;47.97
71795;BME280;59641;45.188;5.712;2023-03-23T03:05:53;98994.72;;;17.00;48.48
71795;BME280;59641;45.188;5.712;2023-03-23T03:11:13;98986.88;;;16.98;48.25
71795;BME280;59641;45.188;5.712;2023-03-23T03:16:16;98985.53;;;16.96;48.54
71795;BME280;59641;45.188;5.712;2023-03-23T03:18:57;98985.78;;;16.94;48.10
71795;BME280;59641;45.188;5.712;2023-03-23T03:21:27;98985.50;;;16.91;48.51
71795;BME280;59641;45.188;5.712;2023-03-23T03:23:56;98989.31;;;16.90;48.40
71795;BME280;59641;45.188;5.712;2023-03-23T03:26:27;98977.38;;;16.86;48.45
71795;BME280;59641;45.188;5.712;2023-03-23T03:28:53;98973.59;;;16.81;48.21
71795;BME280;59641;45.188;5.712;2023-03-23T03:31:24;98967.84;;;16.78;48.46
71795;BME280;59641;45.188;5.712;2023-03-23T03:33:51;98971.94;;;16.75;48.57
71795;BME280;59641;45.188;5.712;2023-03-23T03:36:23;98974.38;;;16.72;48.72
71795;BME280;59641;45.188;5.712;2023-03-23T03:38:51;98975.72;;;16.69;48.70
71795;BME280;59641;45.188;5.712;2023-03-23T03:41:18;98975.19;;;16.67;48.73
71795;BME280;59641;45.188;5.712;2023-03-23T03:43:44;98981.13;;;16.64;48.50
71795;BME280;59641;45.188;5.712;2023-03-23T03:46:09;98981.41;;;16.63;48.47
71795;BME280;59641;45.188;5.712;2023-03-23T03:48:35;98980.03;;;16.60;48.91
71795;BME280;59641;45.188;5.712;2023-03-23T03:51:00;98972.97;;;16.59;48.54
71795;BME280;59641;45.188;5.712;2023-03-23T03:53:27;98964.31;;;16.57;48.51
71795;BME280;59641;45.188;5.712;2023-03-23T03:55:52;98965.66;;;16.54;48.79
71795;BME280;59641;45.188;5.712;2023-03-23T03:58:24;98967.00;;;16.52;48.52
71795;BME280;59641;45.188;5.712;2023-03-23T04:00:50;98975.13;;;16.52;48.65
71795;BME280;59641;45.188;5.712;2023-03-23T04:03:18;98972.44;;;16.52;48.51
71795;BME280;59641;45.188;5.712;2023-03-23T04:05:44;98978.13;;;16.50;48.92
71795;BME280;59641;45.188;5.712;2023-03-23T04:08:10;98972.97;;;16.49;48.45
71795;BME280;59641;45.188;5.712;2023-03-23T04:10:37;98968.66;;;16.48;48.72
71795;BME280;59641;45.188;5.712;2023-03-23T04:13:02;98959.69;;;16.47;48.87
71795;BME280;59641;45.188;5.712;2023-03-23T04:15:30;98967.00;;;16.47;48.42
71795;BME280;59641;45.188;5.712;2023-03-23T04:17:55;98969.72;;;16.47;48.76
71795;BME280;59641;45.188;5.712;2023-03-23T04:20:22;98967.28;;;16.45;48.88
71795;BME280;59641;45.188;5.712;2023-03-23T04:22:48;98969.44;;;16.43;48.69
71795;BME280;59641;45.188;5.712;2023-03-23T04:25:15;98965.66;;;16.44;48.55
71795;BME280;59641;45.188;5.712;2023-03-23T04:27:42;98972.16;;;16.43;48.75
71795;BME280;59641;45.188;5.712;2023-03-23T04:30:12;98971.31;;;16.43;48.48
71795;BME280;59641;45.188;5.712;2023-03-23T04:32:41;98974.88;;;16.43;48.68
71795;BME280;59641;45.188;5.712;2023-03-23T04:35:09;98973.22;;;16.42;48.58
71795;BME280;59641;45.188;5.712;2023-03-23T04:37:36;98971.59;;;16.41;48.92
71795;BME280;59641;45.188;5.712;2023-03-23T04:40:03;98968.09;;;16.40;48.79
71795;BME280;59641;45.188;5.712;2023-03-23T04:42:33;98970.81;;;16.40;48.87
71795;BME280;59641;45.188;5.712;2023-03-23T04:44:59;98959.41;;;16.38;48.72
71795;BME280;59641;45.188;5.712;2023-03-23T04:47:26;98954.81;;;16.39;48.44
71795;BME280;59641;45.188;5.712;2023-03-23T04:49:56;98963.19;;;16.37;48.75
71795;BME280;59641;45.188;5.712;2023-03-23T04:52:24;98958.88;;;16.36;48.47
71795;BME280;59641;45.188;5.712;2023-03-23T04:54:51;98964.53;;;16.35;48.81
71795;BME280;59641;45.188;5.712;2023-03-23T04:57:16;98969.97;;;16.35;48.56
71795;BME280;59641;45.188;5.712;2023-03-23T04:59:42;98972.66;;;16.35;48.60
71795;BME280;59641;45.188;5.712;2023-03-23T05:02:09;98972.41;;;16.36;48.64
71795;BME280;59641;45.188;5.712;2023-03-23T05:04:35;98977.03;;;16.36;48.74
71795;BME280;59641;45.188;5.712;2023-03-23T05:07:02;98975.94;;;16.37;48.78
71795;BME280;59641;45.188;5.712;2023-03-23T05:09:28;98978.88;;;16.35;48.97
71795;BME280;59641;45.188;5.712;2023-03-23T05:11:53;98980.78;;;16.35;48.33
71795;BME280;59641;45.188;5.712;2023-03-23T05:14:18;98975.38;;;16.35;48.51
71795;BME280;59641;45.188;5.712;2023-03-23T05:16:44;98969.41;;;16.33;48.50
71795;BME280;59641;45.188;5.712;2023-03-23T05:19:13;98967.53;;;16.33;48.57
71795;BME280;59641;45.188;5.712;2023-03-23T05:21:39;98969.41;;;16.33;48.63
71795;BME280;59641;45.188;5.712;2023-03-23T05:24:05;98975.91;;;16.32;48.69
71795;BME280;59641;45.188;5.712;2023-03-23T05:26:31;98978.63;;;16.32;48.57
71795;BME280;59641;45.188;5.712;2023-03-23T05:28:57;98985.13;;;16.31;48.55
71795;BME280;59641;45.188;5.712;2023-03-23T05:31:24;98973.75;;;16.29;48.43
71795;BME280;59641;45.188;5.712;2023-03-23T05:33:50;98971.31;;;16.27;48.16
71795;BME280;59641;45.188;5.712;2023-03-23T05:36:15;98978.63;;;16.27;48.33
71795;BME280;59641;45.188;5.712;2023-03-23T05:38:41;98982.13;;;16.27;48.61
71795;BME280;59641;45.188;5.712;2023-03-23T05:41:13;98989.44;;;16.27;48.51
71795;BME280;59641;45.188;5.712;2023-03-23T05:43:39;98984.03;;;16.27;48.44
71795;BME280;59641;45.188;5.712;2023-03-23T05:46:05;98986.75;;;16.27;48.38
71795;BME280;59641;45.188;5.712;2023-03-23T05:48:30;98986.75;;;16.27;48.26
71795;BME280;59641;45.188;5.712;2023-03-23T05:50:56;98982.13;;;16.27;48.30
71795;BME280;59641;45.188;5.712;2023-03-23T05:53:22;98985.38;;;16.29;48.29
71795;BME280;59641;45.188;5.712;2023-03-23T05:55:48;98988.09;;;16.29;48.21
71795;BME280;59641;45.188;5.712;2023-03-23T05:58:13;98990.81;;;16.29;48.14
71795;BME280;59641;45.188;5.712;2023-03-23T06:00:39;98996.22;;;16.29;48.20
71795;BME280;59641;45.188;5.712;2023-03-23T06:03:04;99001.09;;;16.27;48.36
71795;BME280;59641;45.188;5.712;2023-03-23T06:05:30;99006.50;;;16.27;48.65
71795;BME280;59641;45.188;5.712;2023-03-23T06:07:58;99007.31;;;16.28;48.57
71795;BME280;59641;45.188;5.712;2023-03-23T06:10:24;99010.00;;;16.28;48.53
71795;BME280;59641;45.188;5.712;2023-03-23T06:12:50;99008.94;;;16.29;48.30
71795;BME280;59641;45.188;5.712;2023-03-23T06:15:17;99010.31;;;16.31;48.30
71795;BME280;59641;45.188;5.712;2023-03-23T06:17:43;99016.53;;;16.32;48.12
71795;BME280;59641;45.188;5.712;2023-03-23T06:20:09;99009.22;;;16.32;48.28
71795;BME280;59641;45.188;5.712;2023-03-23T06:22:37;99011.66;;;16.34;48.45
71795;BME280;59641;45.188;5.712;2023-03-23T06:25:07;99014.38;;;16.34;48.40
71795;BME280;59641;45.188;5.712;2023-03-23T06:27:33;99017.09;;;16.34;48.17
71795;BME280;59641;45.188;5.712;2023-03-23T06:29:58;99017.88;;;16.34;48.17
71795;BME280;59641;45.188;5.712;2023-03-23T06:32:25;99021.41;;;16.35;48.12
71795;BME280;59641;45.188;5.712;2023-03-23T06:34:52;99011.66;;;16.34;48.26
71795;BME280;59641;45.188;5.712;2023-03-23T06:37:18;99020.59;;;16.34;48.44
71795;BME280;59641;45.188;5.712;2023-03-23T06:39:43;99027.09;;;16.33;48.35
71795;BME280;59641;45.188;5.712;2023-03-23T06:42:09;99018.97;;;16.33;48.22
71795;BME280;59641;45.188;5.712;2023-03-23T06:44:36;99008.66;;;16.30;48.15
71795;BME280;59641;45.188;5.712;2023-03-23T06:47:01;99015.97;;;16.30;48.05
71795;BME280;59641;45.188;5.712;2023-03-23T06:49:27;99011.91;;;16.27;47.82
71795;BME280;59641;45.188;5.712;2023-03-23T06:51:52;99015.16;;;16.29;47.98
71795;BME280;59641;45.188;5.712;2023-03-23T06:54:18;99016.78;;;16.30;47.83
71795;BME280;59641;45.188;5.712;2023-03-23T06:56:43;99021.94;;;16.32;48.04
71795;BME280;59641;45.188;5.712;2023-03-23T06:59:09;99020.59;;;16.34;47.91
71795;BME280;59641;45.188;5.712;2023-03-23T07:01:35;99026.31;;;16.38;47.74
71795;BME280;59641;45.188;5.712;2023-03-23T07:04:01;99021.69;;;16.38;47.54
71795;BME280;59641;45.188;5.712;2023-03-23T07:06:27;99025.22;;;16.39;47.45
71795;BME280;59641;45.188;5.712;2023-03-23T07:08:52;99017.66;;;16.41;47.52
71795;BME280;59641;45.188;5.712;2023-03-23T07:11:18;99014.94;;;16.41;47.52
71795;BME280;59641;45.188;5.712;2023-03-23T07:13:43;99022.78;;;16.43;47.59
71795;BME280;59641;45.188;5.712;2023-03-23T07:16:10;99017.09;;;16.44;47.34
71795;BME280;59641;45.188;5.712;2023-03-23T07:18:36;99017.41;;;16.48;47.46
71795;BME280;59641;45.188;5.712;2023-03-23T07:21:01;99023.63;;;16.48;47.12
71795;BME280;59641;45.188;5.712;2023-03-23T07:23:28;99022.28;;;16.51;47.25
71795;BME280;59641;45.188;5.712;2023-03-23T07:25:54;99022.81;;;16.53;47.41
71795;BME280;59641;45.188;5.712;2023-03-23T07:28:19;99019.84;;;16.54;47.20
71795;BME280;59641;45.188;5.712;2023-03-23T07:30:45;99023.91;;;16.57;47.10
71795;BME280;59641;45.188;5.712;2023-03-23T07:33:10;99018.22;;;16.58;47.07
71795;BME280;59641;45.188;5.712;2023-03-23T07:35:36;99021.47;;;16.60;47.10
71795;BME280;59641;45.188;5.712;2023-03-23T07:38:04;99029.06;;;16.64;46.96
71795;BME280;59641;45.188;5.712;2023-03-23T07:40:30;99031.53;;;16.65;46.71
71795;BME280;59641;45.188;5.712;2023-03-23T07:42:59;99035.84;;;16.66;46.87
71795;BME280;59641;45.188;5.712;2023-03-23T07:45:26;99034.78;;;16.67;46.75
71795;BME280;59641;45.188;5.712;2023-03-23T07:47:52;99033.13;;;16.66;46.81
71795;BME280;59641;45.188;5.712;2023-03-23T07:50:18;99035.84;;;16.66;46.48
71795;BME280;59641;45.188;5.712;2023-03-23T07:52:47;99032.31;;;16.66;46.11
71795;BME280;59641;45.188;5.712;2023-03-23T07:55:13;99030.16;;;16.63;46.46
71795;BME280;59641;45.188;5.712;2023-03-23T07:57:45;99039.34;;;16.61;46.58
71795;BME280;59641;45.188;5.712;2023-03-23T08:00:13;99037.75;;;16.60;46.79
71795;BME280;59641;45.188;5.712;2023-03-23T08:02:47;99035.56;;;16.57;46.55
71795;BME280;59641;45.188;5.712;2023-03-23T08:05:14;99038.28;;;16.57;46.34
71795;BME280;59641;45.188;5.712;2023-03-23T08:07:41;99043.69;;;16.57;46.47
71795;BME280;59641;45.188;5.712;2023-03-23T08:10:08;99037.44;;;16.57;46.45
71795;BME280;59641;45.188;5.712;2023-03-23T08:12:42;99038.28;;;16.57;46.46
71795;BME280;59641;45.188;5.712;2023-03-23T08:15:10;99047.22;;;16.58;46.27
71795;BME280;59641;45.188;5.712;2023-03-23T08:17:42;99047.22;;;16.58;46.33
71795;BME280;59641;45.188;5.712;2023-03-23T08:20:09;99048.81;;;16.59;46.70
71795;BME280;59641;45.188;5.712;2023-03-23T08:22:39;99037.44;;;16.57;46.13
71795;BME280;59641;45.188;5.712;2023-03-23T08:25:07;99045.84;;;16.55;46.52
71795;BME280;59641;45.188;5.712;2023-03-23T08:27:33;99038.53;;;16.56;46.41
71795;BME280;59641;45.188;5.712;2023-03-23T08:29:59;99038.53;;;16.56;46.42
71795;BME280;59641;45.188;5.712;2023-03-23T08:32:25;99025.25;;;16.54;46.73
71795;BME280;59641;45.188;5.712;2023-03-23T08:34:51;99037.44;;;16.57;46.90
71795;BME280;59641;45.188;5.712;2023-03-23T08:37:16;99035.56;;;16.57;46.82
71795;BME280;59641;45.188;5.712;2023-03-23T08:39:42;99035.56;;;16.57;47.02
71795;BME280;59641;45.188;5.712;2023-03-23T08:42:10;99045.31;;;16.58;46.55
71795;BME280;59641;45.188;5.712;2023-03-23T08:44:36;99036.38;;;16.58;46.88
71795;BME280;59641;45.188;5.712;2023-03-23T08:47:02;99036.38;;;16.58;47.08
71795;BME280;59641;45.188;5.712;2023-03-23T08:49:30;99042.59;;;16.58;47.35
71795;BME280;59641;45.188;5.712;2023-03-23T08:51:58;99049.63;;;16.59;47.05
71795;BME280;59641;45.188;5.712;2023-03-23T08:54:24;99051.28;;;16.60;47.42
71795;BME280;59641;45.188;5.712;2023-03-23T08:56:49;99058.88;;;16.64;47.48
71795;BME280;59641;45.188;5.712;2023-03-23T08:59:15;99057.25;;;16.63;47.84
71795;BME280;59641;45.188;5.712;2023-03-23T09:01:40;99070.25;;;16.66;47.72
71795;BME280;59641;45.188;5.712;2023-03-23T09:04:07;99069.16;;;16.67;47.85
71795;BME280;59641;45.188;5.712;2023-03-23T09:06:35;99071.59;;;16.68;47.75
71795;BME280;59641;45.188;5.712;2023-03-23T09:09:01;99071.59;;;16.68;47.68
71795;BME280;59641;45.188;5.712;2023-03-23T09:11:35;99071.88;;;16.67;48.04
71795;BME280;59641;45.188;5.712;2023-03-23T09:14:03;99074.06;;;16.65;47.73
71795;BME280;59641;45.188;5.712;2023-03-23T09:16:29;99081.09;;;16.66;48.01
71795;BME280;59641;45.188;5.712;2023-03-23T09:18:54;99079.72;;;16.63;48.51
71795;BME280;59641;45.188;5.712;2023-03-23T09:21:22;99081.06;;;16.60;48.55
71795;BME280;59641;45.188;5.712;2023-03-23T09:23:48;99093.25;;;16.58;48.38
71795;BME280;59641;45.188;5.712;2023-03-23T09:26:14;99092.72;;;16.56;48.37
71795;BME280;59641;45.188;5.712;2023-03-23T09:28:39;99092.97;;;16.54;48.57
71795;BME280;59641;45.188;5.712;2023-03-23T09:31:05;99092.16;;;16.54;48.79
71795;BME280;59641;45.188;5.712;2023-03-23T09:33:30;99096.75;;;16.53;48.54
71795;BME280;59641;45.188;5.712;2023-03-23T09:35:59;99095.66;;;16.54;49.02
71795;BME280;59641;45.188;5.712;2023-03-23T09:38:24;99083.78;;;16.55;48.85
71795;BME280;59641;45.188;5.712;2023-03-23T09:41:20;99091.34;;;16.58;48.83
71795;BME280;59641;45.188;5.712;2023-03-23T09:43:55;99092.44;;;16.57;49.15
71795;BME280;59641;45.188;5.712;2023-03-23T09:46:52;99096.53;;;16.60;49.26
71795;BME280;59641;45.188;5.712;2023-03-23T09:49:27;99097.34;;;16.66;49.12
71795;BME280;59641;45.188;5.712;2023-03-23T09:51:59;99073.75;;;16.66;49.07
71795;BME280;59641;45.188;5.712;2023-03-23T09:54:38;99079.75;;;16.68;49.06
71795;BME280;59641;45.188;5.712;2023-03-23T09:57:12;99098.72;;;16.73;48.89
71795;BME280;59641;45.188;5.712;2023-03-23T10:04:44;99103.66;;;16.87;48.94
71795;BME280;59641;45.188;5.712;2023-03-23T10:07:19;99099.59;;;16.89;49.30
71795;BME280;59641;45.188;5.712;2023-03-23T10:09:51;99106.13;;;16.93;49.47
71795;BME280;59641;45.188;5.712;2023-03-23T10:12:52;99100.72;;;16.98;49.82
71795;BME280;59641;45.188;5.712;2023-03-23T10:15:25;99109.13;;;17.02;49.29
71795;BME280;59641;45.188;5.712;2023-03-23T10:18:00;99112.13;;;17.06;49.88
71795;BME280;59641;45.188;5.712;2023-03-23T10:20:35;99115.09;;;17.09;49.56
71795;BME280;59641;45.188;5.712;2023-03-23T10:23:47;99115.38;;;17.13;49.50
71795;BME280;59641;45.188;5.712;2023-03-23T10:25:55;99115.66;;;17.16;49.54
71795;BME280;59641;45.188;5.712;2023-03-23T10:28:44;99114.56;;;17.17;49.44
71795;BME280;59641;45.188;5.712;2023-03-23T10:31:16;99122.97;;;17.16;49.75
71795;BME280;59641;45.188;5.712;2023-03-23T10:33:48;99117.53;;;17.16;49.53
71795;BME280;59641;45.188;5.712;2023-03-23T10:38:50;99108.06;;;17.18;49.79
71795;BME280;59641;45.188;5.712;2023-03-23T10:41:19;99112.94;;;17.21;49.65
71795;BME280;59641;45.188;5.712;2023-03-23T10:43:46;99103.44;;;17.24;49.93
71795;BME280;59641;45.188;5.712;2023-03-23T10:46:39;99100.22;;;17.32;49.97
71795;BME280;59641;45.188;5.712;2023-03-23T10:49:10;99101.81;;;17.33;50.32
71795;BME280;59641;45.188;5.712;2023-03-23T10:51:42;99097.50;;;17.37;50.18
71795;BME280;59641;45.188;5.712;2023-03-23T10:54:09;99094.50;;;17.39;50.03
71795;BME280;59641;45.188;5.712;2023-03-23T10:56:36;99096.41;;;17.43;50.25
71795;BME280;59641;45.188;5.712;2023-03-23T11:01:38;99098.84;;;17.50;50.01
71795;BME280;59641;45.188;5.712;2023-03-23T11:04:12;99099.69;;;17.56;49.83
71795;BME280;59641;45.188;5.712;2023-03-23T11:06:43;99087.97;;;17.60;50.03
71795;BME280;59641;45.188;5.712;2023-03-23T11:09:21;99085.00;;;17.67;49.84
71795;BME280;59641;45.188;5.712;2023-03-23T11:11:58;99086.34;;;17.70;49.85
71795;BME280;59641;45.188;5.712;2023-03-23T11:14:32;99082.00;;;17.74;50.07
71795;BME280;59641;45.188;5.712;2023-03-23T11:17:04;99087.69;;;17.77;49.92
71795;BME280;59641;45.188;5.712;2023-03-23T11:19:33;99081.19;;;17.78;49.90
71795;BME280;59641;45.188;5.712;2023-03-23T11:24:40;99072.81;;;17.85;49.93
71795;BME280;59641;45.188;5.712;2023-03-23T11:27:07;99062.47;;;17.87;49.47
71795;BME280;59641;45.188;5.712;2023-03-23T11:29:35;99064.09;;;17.88;49.78
71795;BME280;59641;45.188;5.712;2023-03-23T11:34:34;99055.94;;;17.93;49.49
71795;BME280;59641;45.188;5.712;2023-03-23T11:37:49;99070.59;;;17.97;49.89
71795;BME280;59641;45.188;5.712;2023-03-23T11:39:55;99059.44;;;17.99;49.83
71795;BME280;59641;45.188;5.712;2023-03-23T11:42:24;99062.44;;;18.02;49.38
71795;BME280;59641;45.188;5.712;2023-03-23T11:44:54;99061.63;;;18.07;49.62
71795;BME280;59641;45.188;5.712;2023-03-23T11:47:29;99054.25;;;18.13;49.77
71795;BME280;59641;45.188;5.712;2023-03-23T11:50:04;99049.59;;;18.18;49.38
71795;BME280;59641;45.188;5.712;2023-03-23T11:52:42;99045.25;;;18.22;49.73
71795;BME280;59641;45.188;5.712;2023-03-23T11:55:28;99036.53;;;18.25;49.66
71795;BME280;59641;45.188;5.712;2023-03-23T11:57:55;99037.06;;;18.27;49.31
71795;BME280;59641;45.188;5.712;2023-03-23T12:00:25;99034.91;;;18.29;49.15
71795;BME280;59641;45.188;5.712;2023-03-23T12:02:56;99038.16;;;18.31;49.35
71795;BME280;59641;45.188;5.712;2023-03-23T12:06:02;99027.84;;;18.34;49.25
71795;BME280;59641;45.188;5.712;2023-03-23T12:08:47;99019.69;;;18.34;49.40
71795;BME280;59641;45.188;5.712;2023-03-23T12:41:57;98999.53;;;18.45;49.54
71795;BME280;59641;45.188;5.712;2023-03-23T12:44:41;98989.19;;;18.42;49.62
71795;BME280;59641;45.188;5.712;2023-03-23T12:47:34;98989.50;;;18.40;49.73
71795;BME280;59641;45.188;5.712;2023-03-23T12:50:23;98992.50;;;18.39;49.46
71795;BME280;59641;45.188;5.712;2023-03-23T12:55:53;98980.31;;;18.31;49.74
71795;BME280;59641;45.188;5.712;2023-03-23T12:58:24;98971.63;;;18.29;50.18
71795;BME280;59641;45.188;5.712;2023-03-23T13:03:36;98959.16;;;18.28;50.10
71795;BME280;59641;45.188;5.712;2023-03-23T13:08:59;98948.56;;;18.26;50.17
71795;BME280;59641;45.188;5.712;2023-03-23T13:11:33;98956.16;;;18.24;50.40
71795;BME280;59641;45.188;5.712;2023-03-23T13:22:30;98952.41;;;18.15;50.29
71795;BME280;59641;45.188;5.712;2023-03-23T13:25:00;98952.97;;;18.12;50.65
71795;BME280;59641;45.188;5.712;2023-03-23T13:27:27;98938.34;;;18.08;50.72
71795;BME280;59641;45.188;5.712;2023-03-23T13:29:54;98941.34;;;18.06;51.22
71795;BME280;59641;45.188;5.712;2023-03-23T13:32:22;98929.66;;;18.06;50.82
71795;BME280;59641;45.188;5.712;2023-03-23T13:34:54;98933.75;;;18.03;50.85
71795;BME280;59641;45.188;5.712;2023-03-23T13:37:23;98917.75;;;18.02;50.82
71795;BME280;59641;45.188;5.712;2023-03-23T13:39:51;98925.34;;;18.00;51.12
71795;BME280;59641;45.188;5.712;2023-03-23T13:42:23;98928.88;;;18.00;50.92
71795;BME280;59641;45.188;5.712;2023-03-23T13:52:37;98912.84;;;17.99;51.06
71795;BME280;59641;45.188;5.712;2023-03-23T13:57:55;98909.09;;;17.95;51.53
71795;BME280;59641;45.188;5.712;2023-03-23T14:02:51;98915.59;;;17.94;51.61
71795;BME280;59641;45.188;5.712;2023-03-23T14:07:59;98906.09;;;17.96;51.63
71795;BME280;59641;45.188;5.712;2023-03-23T14:13:23;98894.16;;;17.97;51.48
71795;BME280;59641;45.188;5.712;2023-03-23T14:16:03;98899.59;;;17.97;51.69
71795;BME280;59641;45.188;5.712;2023-03-23T14:18:39;98898.25;;;17.95;51.61
71795;BME280;59641;45.188;5.712;2023-03-23T14:21:11;98899.31;;;17.94;51.51
71795;BME280;59641;45.188;5.712;2023-03-23T14:23:39;98893.06;;;17.93;51.58
71795;BME280;59641;45.188;5.712;2023-03-23T14:26:11;98889.25;;;17.94;51.64
71795;BME280;59641;45.188;5.712;2023-03-23T14:28:43;98888.50;;;17.88;51.81
71795;BME280;59641;45.188;5.712;2023-03-23T14:31:27;98894.72;;;17.89;51.82
71795;BME280;59641;45.188;5.712;2023-03-23T14:33:56;98911.00;;;17.89;51.70
71795;BME280;59641;45.188;5.712;2023-03-23T14:36:24;98903.41;;;17.91;51.63
71795;BME280;59641;45.188;5.712;2023-03-23T14:39:04;98912.09;;;17.93;51.46
71795;BME280;59641;45.188;5.712;2023-03-23T14:41:32;98919.69;;;17.91;51.62
71795;BME280;59641;45.188;5.712;2023-03-23T14:44:00;98912.88;;;17.94;51.75
71795;BME280;59641;45.188;5.712;2023-03-23T14:46:27;98907.19;;;17.95;51.88
71795;BME280;59641;45.188;5.712;2023-03-23T14:48:54;98913.97;;;17.98;51.78